Skip Navigation Links Skip Navigation Links

Current Weather

New River Valley, Dublin, Va.

For information only: do not use for flight planning or navigation.
Latest weather
Observation time Thursday, August 16, 2018 2:15 AM EDT
Local time Thursday, August 16, 2018 2:29 AM EDT
Flight conditions Visual Meteorological Conditions
Winds
Wind speed calm
Visibility 7 mi.
Sky condition
Ceiling unlimited
Sky clear
Temperature 67°F
Dewpoint 65°F
Altimeter 30.20 in.Hg
Derived measurements
Relative humidity 95%
Density altitude 2581 ft.
Remarks
Fully automated report.
Automated weather observing station with precipitation discriminator.
METAR KPSK 160615Z AUTO 00000KT 7SM CLR 19/19 A3020 RMK AO2 T01930185

Settings

Location code

InnerDrive.Weather 4.0.6770.0 Release CLR 4.0.30319.42000
Copyright ©2018 Inner Drive Technology. All rights reserved. Portions Copyright ©1986-2018 David Braverman.

Find weather

Site navigation


Skip Navigation Links

Place info

Page info

PayPal - The safer, easier way to pay online!

Return home.

Copyright ©2018 Inner Drive Technology. Purveyors of fine, hand-crafted computer software. Page printed 2018-08-16T06:29:05 UTC.